sensor_id;sensor_type;location;lat;lon;timestamp;temperature;humidity
19220;DHT22;9744;49.364;7.484;2022-08-19T00:02:00;22.90;99.90
19220;DHT22;9744;49.364;7.484;2022-08-19T00:04:31;22.90;99.90
19220;DHT22;9744;49.364;7.484;2022-08-19T00:07:01;22.90;99.90
19220;DHT22;9744;49.364;7.484;2022-08-19T00:09:28;22.90;99.90
19220;DHT22;9744;49.364;7.484;2022-08-19T00:11:57;22.90;99.90
19220;DHT22;9744;49.364;7.484;2022-08-19T00:14:25;22.80;99.90
19220;DHT22;9744;49.364;7.484;2022-08-19T00:16:53;22.80;99.90
19220;DHT22;9744;49.364;7.484;2022-08-19T00:19:23;22.80;99.90
19220;DHT22;9744;49.364;7.484;2022-08-19T00:21:51;22.80;99.90
19220;DHT22;9744;49.364;7.484;2022-08-19T00:24:19;22.80;99.90
19220;DHT22;9744;49.364;7.484;2022-08-19T00:26:46;22.70;99.90
19220;DHT22;9744;49.364;7.484;2022-08-19T00:29:15;22.70;99.90
19220;DHT22;9744;49.364;7.484;2022-08-19T00:31:43;22.70;99.90
19220;DHT22;9744;49.364;7.484;2022-08-19T00:34:10;22.60;99.90
19220;DHT22;9744;49.364;7.484;2022-08-19T00:36:40;22.60;99.90
19220;DHT22;9744;49.364;7.484;2022-08-19T00:39:07;22.50;99.90
19220;DHT22;9744;49.364;7.484;2022-08-19T00:41:34;22.50;99.90
19220;DHT22;9744;49.364;7.484;2022-08-19T00:44:05;22.40;99.90
19220;DHT22;9744;49.364;7.484;2022-08-19T00:46:34;22.40;99.90
19220;DHT22;9744;49.364;7.484;2022-08-19T00:49:07;22.30;99.90
19220;DHT22;9744;49.364;7.484;2022-08-19T00:51:37;22.30;99.90
19220;DHT22;9744;49.364;7.484;2022-08-19T00:54:05;22.30;99.90
19220;DHT22;9744;49.364;7.484;2022-08-19T00:56:33;22.40;99.90
19220;DHT22;9744;49.364;7.484;2022-08-19T00:59:02;22.40;99.90
19220;DHT22;9744;49.364;7.484;2022-08-19T01:01:35;22.40;99.90
19220;DHT22;9744;49.364;7.484;2022-08-19T01:04:02;22.40;99.90
19220;DHT22;9744;49.364;7.484;2022-08-19T01:06:30;22.40;99.90
19220;DHT22;9744;49.364;7.484;2022-08-19T01:08:59;22.40;99.90
19220;DHT22;9744;49.364;7.484;2022-08-19T01:11:28;22.40;99.90
19220;DHT22;9744;49.364;7.484;2022-08-19T01:13:57;22.40;99.90
19220;DHT22;9744;49.364;7.484;2022-08-19T01:16:27;22.40;99.90
19220;DHT22;9744;49.364;7.484;2022-08-19T01:18:55;22.40;99.90
19220;DHT22;9744;49.364;7.484;2022-08-19T01:21:37;22.40;99.90
19220;DHT22;9744;49.364;7.484;2022-08-19T01:24:08;22.40;99.90
19220;DHT22;9744;49.364;7.484;2022-08-19T01:26:39;22.40;99.90
19220;DHT22;9744;49.364;7.484;2022-08-19T01:29:11;22.30;99.90
19220;DHT22;9744;49.364;7.484;2022-08-19T01:31:38;22.30;99.90
19220;DHT22;9744;49.364;7.484;2022-08-19T01:34:07;22.30;99.90
19220;DHT22;9744;49.364;7.484;2022-08-19T01:36:37;22.20;99.90
19220;DHT22;9744;49.364;7.484;2022-08-19T01:39:12;22.20;99.90
19220;DHT22;9744;49.364;7.484;2022-08-19T01:41:40;22.20;99.90
19220;DHT22;9744;49.364;7.484;2022-08-19T01:44:08;22.20;99.90
19220;DHT22;9744;49.364;7.484;2022-08-19T01:46:36;22.20;99.90
19220;DHT22;9744;49.364;7.484;2022-08-19T01:49:05;22.20;99.90
19220;DHT22;9744;49.364;7.484;2022-08-19T01:51:33;22.20;99.90
19220;DHT22;9744;49.364;7.484;2022-08-19T01:54:01;22.20;99.90
19220;DHT22;9744;49.364;7.484;2022-08-19T01:56:30;22.20;99.90
19220;DHT22;9744;49.364;7.484;2022-08-19T01:59:00;22.20;99.90
19220;DHT22;9744;49.364;7.484;2022-08-19T02:01:28;22.20;99.90
19220;DHT22;9744;49.364;7.484;2022-08-19T02:03:58;22.20;99.90
19220;DHT22;9744;49.364;7.484;2022-08-19T02:06:26;22.10;99.90
19220;DHT22;9744;49.364;7.484;2022-08-19T02:08:54;22.10;99.90
19220;DHT22;9744;49.364;7.484;2022-08-19T02:11:24;22.10;99.90
19220;DHT22;9744;49.364;7.484;2022-08-19T02:13:54;22.10;99.90
19220;DHT22;9744;49.364;7.484;2022-08-19T02:16:22;22.10;99.90
19220;DHT22;9744;49.364;7.484;2022-08-19T02:18:49;22.20;99.90
19220;DHT22;9744;49.364;7.484;2022-08-19T02:21:17;22.20;99.90
19220;DHT22;9744;49.364;7.484;2022-08-19T02:23:47;22.10;99.90
19220;DHT22;9744;49.364;7.484;2022-08-19T02:26:16;22.10;99.90
19220;DHT22;9744;49.364;7.484;2022-08-19T02:28:45;22.00;99.90
19220;DHT22;9744;49.364;7.484;2022-08-19T02:31:16;22.00;99.90
19220;DHT22;9744;49.364;7.484;2022-08-19T02:33:44;22.00;99.90
19220;DHT22;9744;49.364;7.484;2022-08-19T02:36:13;21.90;99.90
19220;DHT22;9744;49.364;7.484;2022-08-19T02:38:41;21.90;99.90
19220;DHT22;9744;49.364;7.484;2022-08-19T02:41:13;21.90;99.90
19220;DHT22;9744;49.364;7.484;2022-08-19T02:43:41;21.90;99.90
19220;DHT22;9744;49.364;7.484;2022-08-19T02:46:16;21.90;99.90
19220;DHT22;9744;49.364;7.484;2022-08-19T02:48:47;22.00;99.90
19220;DHT22;9744;49.364;7.484;2022-08-19T02:51:17;22.00;99.90
19220;DHT22;9744;49.364;7.484;2022-08-19T02:53:44;22.10;99.90
19220;DHT22;9744;49.364;7.484;2022-08-19T02:56:15;22.10;99.90
19220;DHT22;9744;49.364;7.484;2022-08-19T02:58:45;22.00;99.90
19220;DHT22;9744;49.364;7.484;2022-08-19T03:01:22;22.00;99.90
19220;DHT22;9744;49.364;7.484;2022-08-19T03:03:50;22.00;99.90
19220;DHT22;9744;49.364;7.484;2022-08-19T03:06:18;22.00;99.90
19220;DHT22;9744;49.364;7.484;2022-08-19T03:08:47;22.00;99.90
19220;DHT22;9744;49.364;7.484;2022-08-19T03:11:18;22.00;99.90
19220;DHT22;9744;49.364;7.484;2022-08-19T03:13:47;22.00;99.90
19220;DHT22;9744;49.364;7.484;2022-08-19T03:16:17;22.00;99.90
19220;DHT22;9744;49.364;7.484;2022-08-19T03:18:46;22.00;99.90
19220;DHT22;9744;49.364;7.484;2022-08-19T03:21:15;22.00;99.90
19220;DHT22;9744;49.364;7.484;2022-08-19T03:23:43;22.00;99.90
19220;DHT22;9744;49.364;7.484;2022-08-19T03:26:11;22.00;99.90
19220;DHT22;9744;49.364;7.484;2022-08-19T03:28:40;22.00;99.90
19220;DHT22;9744;49.364;7.484;2022-08-19T03:31:11;22.00;99.90
19220;DHT22;9744;49.364;7.484;2022-08-19T03:33:39;22.00;99.90
19220;DHT22;9744;49.364;7.484;2022-08-19T03:36:10;22.00;99.90
19220;DHT22;9744;49.364;7.484;2022-08-19T03:38:41;21.90;99.90
19220;DHT22;9744;49.364;7.484;2022-08-19T03:41:13;21.90;99.90
19220;DHT22;9744;49.364;7.484;2022-08-19T03:43:42;21.80;99.90
19220;DHT22;9744;49.364;7.484;2022-08-19T03:46:13;22.00;99.90
19220;DHT22;9744;49.364;7.484;2022-08-19T03:48:42;21.80;99.90
19220;DHT22;9744;49.364;7.484;2022-08-19T03:51:18;21.80;99.90
19220;DHT22;9744;49.364;7.484;2022-08-19T03:53:46;21.80;99.90
19220;DHT22;9744;49.364;7.484;2022-08-19T03:56:15;21.80;99.90
19220;DHT22;9744;49.364;7.484;2022-08-19T03:58:43;21.70;99.90
19220;DHT22;9744;49.364;7.484;2022-08-19T04:01:14;21.70;99.90
19220;DHT22;9744;49.364;7.484;2022-08-19T04:03:42;21.70;99.90
19220;DHT22;9744;49.364;7.484;2022-08-19T04:06:10;21.70;99.90
19220;DHT22;9744;49.364;7.484;2022-08-19T04:08:40;21.60;99.90
19220;DHT22;9744;49.364;7.484;2022-08-19T04:11:08;21.60;99.90
19220;DHT22;9744;49.364;7.484;2022-08-19T04:13:36;21.50;99.90
19220;DHT22;9744;49.364;7.484;2022-08-19T04:16:04;21.50;99.90
19220;DHT22;9744;49.364;7.484;2022-08-19T04:18:32;21.40;99.90
19220;DHT22;9744;49.364;7.484;2022-08-19T04:21:00;21.40;99.90
19220;DHT22;9744;49.364;7.484;2022-08-19T04:23:28;21.40;99.90
19220;DHT22;9744;49.364;7.484;2022-08-19T04:25:57;21.40;99.90
19220;DHT22;9744;49.364;7.484;2022-08-19T04:28:25;21.40;99.90
19220;DHT22;9744;49.364;7.484;2022-08-19T04:30:54;21.40;99.90
19220;DHT22;9744;49.364;7.484;2022-08-19T04:33:23;21.40;99.90
19220;DHT22;9744;49.364;7.484;2022-08-19T04:35:51;21.30;99.90
19220;DHT22;9744;49.364;7.484;2022-08-19T04:38:21;21.30;99.90
19220;DHT22;9744;49.364;7.484;2022-08-19T04:40:50;21.30;99.90
19220;DHT22;9744;49.364;7.484;2022-08-19T04:43:38;21.30;99.90
19220;DHT22;9744;49.364;7.484;2022-08-19T04:46:07;21.20;99.90
19220;DHT22;9744;49.364;7.484;2022-08-19T04:48:34;21.20;99.90
19220;DHT22;9744;49.364;7.484;2022-08-19T04:51:07;21.20;99.90
19220;DHT22;9744;49.364;7.484;2022-08-19T04:53:36;21.10;99.90
19220;DHT22;9744;49.364;7.484;2022-08-19T04:56:07;21.10;99.90
19220;DHT22;9744;49.364;7.484;2022-08-19T04:58:40;21.10;99.90
19220;DHT22;9744;49.364;7.484;2022-08-19T05:01:09;21.10;99.90
19220;DHT22;9744;49.364;7.484;2022-08-19T05:03:36;21.10;99.90
19220;DHT22;9744;49.364;7.484;2022-08-19T05:06:06;21.10;99.90
19220;DHT22;9744;49.364;7.484;2022-08-19T05:08:37;21.10;99.90
19220;DHT22;9744;49.364;7.484;2022-08-19T05:11:09;21.10;99.90
19220;DHT22;9744;49.364;7.484;2022-08-19T05:13:38;21.10;99.90
19220;DHT22;9744;49.364;7.484;2022-08-19T05:16:06;21.00;99.90
19220;DHT22;9744;49.364;7.484;2022-08-19T05:18:33;21.00;99.90
19220;DHT22;9744;49.364;7.484;2022-08-19T05:21:19;20.90;99.90
19220;DHT22;9744;49.364;7.484;2022-08-19T05:24:08;20.90;99.90
19220;DHT22;9744;49.364;7.484;2022-08-19T05:26:36;20.90;99.90
19220;DHT22;9744;49.364;7.484;2022-08-19T05:29:06;20.90;99.90
19220;DHT22;9744;49.364;7.484;2022-08-19T05:31:35;20.80;99.90
19220;DHT22;9744;49.364;7.484;2022-08-19T05:34:02;20.80;99.90
19220;DHT22;9744;49.364;7.484;2022-08-19T05:36:35;20.80;99.90
19220;DHT22;9744;49.364;7.484;2022-08-19T05:39:06;20.80;99.90
19220;DHT22;9744;49.364;7.484;2022-08-19T05:41:34;20.80;99.90
19220;DHT22;9744;49.364;7.484;2022-08-19T05:44:05;20.80;99.90
19220;DHT22;9744;49.364;7.484;2022-08-19T05:46:35;20.70;99.90
19220;DHT22;9744;49.364;7.484;2022-08-19T05:49:04;20.70;99.90
19220;DHT22;9744;49.364;7.484;2022-08-19T05:51:32;20.70;99.90
19220;DHT22;9744;49.364;7.484;2022-08-19T05:54:00;20.80;99.90
19220;DHT22;9744;49.364;7.484;2022-08-19T05:56:27;20.80;99.90
19220;DHT22;9744;49.364;7.484;2022-08-19T05:58:59;20.80;99.90
19220;DHT22;9744;49.364;7.484;2022-08-19T06:01:28;20.80;99.90
19220;DHT22;9744;49.364;7.484;2022-08-19T06:03:57;20.90;99.90
19220;DHT22;9744;49.364;7.484;2022-08-19T06:06:26;20.90;99.90
19220;DHT22;9744;49.364;7.484;2022-08-19T06:08:53;20.90;99.90
19220;DHT22;9744;49.364;7.484;2022-08-19T06:11:33;21.00;99.90
19220;DHT22;9744;49.364;7.484;2022-08-19T06:14:04;21.00;99.90
19220;DHT22;9744;49.364;7.484;2022-08-19T06:16:35;21.00;99.90
19220;DHT22;9744;49.364;7.484;2022-08-19T06:19:07;21.00;99.90
19220;DHT22;9744;49.364;7.484;2022-08-19T06:21:37;21.10;99.90
19220;DHT22;9744;49.364;7.484;2022-08-19T06:24:09;21.10;99.90
19220;DHT22;9744;49.364;7.484;2022-08-19T06:26:39;21.10;99.90
19220;DHT22;9744;49.364;7.484;2022-08-19T06:29:07;21.20;99.90
19220;DHT22;9744;49.364;7.484;2022-08-19T06:31:36;21.40;99.90
19220;DHT22;9744;49.364;7.484;2022-08-19T06:34:05;21.40;99.90
19220;DHT22;9744;49.364;7.484;2022-08-19T06:36:38;21.50;99.90
19220;DHT22;9744;49.364;7.484;2022-08-19T06:39:14;21.60;99.90
19220;DHT22;9744;49.364;7.484;2022-08-19T06:41:46;21.70;99.90
19220;DHT22;9744;49.364;7.484;2022-08-19T06:44:30;21.70;99.90
19220;DHT22;9744;49.364;7.484;2022-08-19T06:47:04;21.80;99.90
19220;DHT22;9744;49.364;7.484;2022-08-19T06:49:33;21.90;99.90
19220;DHT22;9744;49.364;7.484;2022-08-19T06:52:08;21.90;99.90
19220;DHT22;9744;49.364;7.484;2022-08-19T06:54:38;22.00;99.90
19220;DHT22;9744;49.364;7.484;2022-08-19T06:57:09;22.00;99.90
19220;DHT22;9744;49.364;7.484;2022-08-19T06:59:40;22.10;99.90
19220;DHT22;9744;49.364;7.484;2022-08-19T07:02:20;22.20;99.90
19220;DHT22;9744;49.364;7.484;2022-08-19T07:04:52;22.20;99.90
19220;DHT22;9744;49.364;7.484;2022-08-19T07:08:09;22.30;99.90
19220;DHT22;9744;49.364;7.484;2022-08-19T07:10:41;22.40;99.90
19220;DHT22;9744;49.364;7.484;2022-08-19T07:13:09;22.40;99.90
19220;DHT22;9744;49.364;7.484;2022-08-19T07:15:37;22.50;99.90
19220;DHT22;9744;49.364;7.484;2022-08-19T07:18:06;22.60;99.90
19220;DHT22;9744;49.364;7.484;2022-08-19T07:20:38;22.60;99.90
19220;DHT22;9744;49.364;7.484;2022-08-19T07:23:05;22.70;99.90
19220;DHT22;9744;49.364;7.484;2022-08-19T07:25:45;22.80;99.90
19220;DHT22;9744;49.364;7.484;2022-08-19T07:28:22;22.80;99.90
19220;DHT22;9744;49.364;7.484;2022-08-19T07:30:58;22.90;99.90
19220;DHT22;9744;49.364;7.484;2022-08-19T07:33:36;23.00;99.90
19220;DHT22;9744;49.364;7.484;2022-08-19T07:36:08;22.90;99.90
19220;DHT22;9744;49.364;7.484;2022-08-19T07:38:40;23.00;99.90
19220;DHT22;9744;49.364;7.484;2022-08-19T07:41:13;23.10;99.90
19220;DHT22;9744;49.364;7.484;2022-08-19T07:43:42;23.10;99.90
19220;DHT22;9744;49.364;7.484;2022-08-19T07:46:11;23.20;99.90
19220;DHT22;9744;49.364;7.484;2022-08-19T07:48:43;23.20;99.90
19220;DHT22;9744;49.364;7.484;2022-08-19T07:51:21;23.30;99.90
19220;DHT22;9744;49.364;7.484;2022-08-19T07:53:49;23.30;99.90
19220;DHT22;9744;49.364;7.484;2022-08-19T07:56:23;23.50;99.90
19220;DHT22;9744;49.364;7.484;2022-08-19T07:58:51;23.50;99.90
19220;DHT22;9744;49.364;7.484;2022-08-19T08:01:23;23.60;99.90
19220;DHT22;9744;49.364;7.484;2022-08-19T08:03:53;23.70;99.90
19220;DHT22;9744;49.364;7.484;2022-08-19T08:06:41;23.80;99.90
19220;DHT22;9744;49.364;7.484;2022-08-19T08:09:40;23.90;99.90
19220;DHT22;9744;49.364;7.484;2022-08-19T08:12:13;24.00;99.90
19220;DHT22;9744;49.364;7.484;2022-08-19T08:14:44;24.10;99.90
19220;DHT22;9744;49.364;7.484;2022-08-19T08:17:24;24.20;99.90
19220;DHT22;9744;49.364;7.484;2022-08-19T08:20:15;24.10;99.90
19220;DHT22;9744;49.364;7.484;2022-08-19T08:22:51;24.10;99.90
19220;DHT22;9744;49.364;7.484;2022-08-19T08:25:37;24.20;99.90
19220;DHT22;9744;49.364;7.484;2022-08-19T08:28:16;24.40;99.90
19220;DHT22;9744;49.364;7.484;2022-08-19T08:30:47;24.60;99.90
19220;DHT22;9744;49.364;7.484;2022-08-19T08:33:25;24.70;99.90
19220;DHT22;9744;49.364;7.484;2022-08-19T08:35:54;25.00;99.90
19220;DHT22;9744;49.364;7.484;2022-08-19T08:38:22;25.10;99.90
19220;DHT22;9744;49.364;7.484;2022-08-19T08:40:53;25.20;99.90
19220;DHT22;9744;49.364;7.484;2022-08-19T08:43:34;25.30;99.90
19220;DHT22;9744;49.364;7.484;2022-08-19T08:46:05;25.60;99.90
19220;DHT22;9744;49.364;7.484;2022-08-19T08:48:39;25.80;99.90
19220;DHT22;9744;49.364;7.484;2022-08-19T08:51:14;26.00;99.90
19220;DHT22;9744;49.364;7.484;2022-08-19T08:53:43;26.20;99.90
19220;DHT22;9744;49.364;7.484;2022-08-19T08:56:17;26.20;99.90
19220;DHT22;9744;49.364;7.484;2022-08-19T08:58:51;26.40;99.90
19220;DHT22;9744;49.364;7.484;2022-08-19T09:01:21;26.60;99.90
19220;DHT22;9744;49.364;7.484;2022-08-19T09:03:54;26.30;99.90
19220;DHT22;9744;49.364;7.484;2022-08-19T09:06:27;25.90;99.90
19220;DHT22;9744;49.364;7.484;2022-08-19T09:09:04;25.60;99.90
19220;DHT22;9744;49.364;7.484;2022-08-19T09:11:51;25.30;99.90
19220;DHT22;9744;49.364;7.484;2022-08-19T09:14:35;25.40;99.90
19220;DHT22;9744;49.364;7.484;2022-08-19T09:17:08;25.60;99.90
19220;DHT22;9744;49.364;7.484;2022-08-19T09:19:46;25.80;99.90
19220;DHT22;9744;49.364;7.484;2022-08-19T09:22:14;25.80;99.90
19220;DHT22;9744;49.364;7.484;2022-08-19T09:24:42;26.00;99.90
19220;DHT22;9744;49.364;7.484;2022-08-19T09:27:09;26.40;99.90
19220;DHT22;9744;49.364;7.484;2022-08-19T09:29:36;26.50;99.90
19220;DHT22;9744;49.364;7.484;2022-08-19T09:32:04;26.70;99.90
19220;DHT22;9744;49.364;7.484;2022-08-19T09:34:32;26.90;99.90
19220;DHT22;9744;49.364;7.484;2022-08-19T09:36:59;27.00;99.90
19220;DHT22;9744;49.364;7.484;2022-08-19T09:39:28;27.20;99.90
19220;DHT22;9744;49.364;7.484;2022-08-19T09:41:56;27.30;99.90
19220;DHT22;9744;49.364;7.484;2022-08-19T09:44:23;27.60;99.90
19220;DHT22;9744;49.364;7.484;2022-08-19T09:46:51;28.00;99.90
19220;DHT22;9744;49.364;7.484;2022-08-19T09:49:19;28.50;99.90
19220;DHT22;9744;49.364;7.484;2022-08-19T09:51:49;28.90;99.90
19220;DHT22;9744;49.364;7.484;2022-08-19T09:54:16;29.20;99.90
19220;DHT22;9744;49.364;7.484;2022-08-19T09:56:45;29.30;99.90
19220;DHT22;9744;49.364;7.484;2022-08-19T09:59:12;29.40;99.90
19220;DHT22;9744;49.364;7.484;2022-08-19T10:01:40;29.60;99.90
19220;DHT22;9744;49.364;7.484;2022-08-19T10:04:07;29.90;99.90
19220;DHT22;9744;49.364;7.484;2022-08-19T10:06:38;30.30;99.90
19220;DHT22;9744;49.364;7.484;2022-08-19T10:09:09;30.50;99.90
19220;DHT22;9744;49.364;7.484;2022-08-19T10:11:40;30.90;99.90
19220;DHT22;9744;49.364;7.484;2022-08-19T10:14:09;31.00;99.90
19220;DHT22;9744;49.364;7.484;2022-08-19T10:16:36;31.00;99.90
19220;DHT22;9744;49.364;7.484;2022-08-19T10:19:04;31.00;99.90
19220;DHT22;9744;49.364;7.484;2022-08-19T10:21:33;31.00;99.90
19220;DHT22;9744;49.364;7.484;2022-08-19T10:24:03;30.70;99.90
19220;DHT22;9744;49.364;7.484;2022-08-19T10:26:40;30.50;99.90
19220;DHT22;9744;49.364;7.484;2022-08-19T10:29:12;30.30;99.90
19220;DHT22;9744;49.364;7.484;2022-08-19T10:31:42;30.50;99.90
19220;DHT22;9744;49.364;7.484;2022-08-19T10:34:09;30.30;99.90
19220;DHT22;9744;49.364;7.484;2022-08-19T10:36:37;30.40;99.90
19220;DHT22;9744;49.364;7.484;2022-08-19T10:39:06;30.60;99.90
19220;DHT22;9744;49.364;7.484;2022-08-19T10:41:37;30.90;99.90
19220;DHT22;9744;49.364;7.484;2022-08-19T10:44:07;31.40;99.90
19220;DHT22;9744;49.364;7.484;2022-08-19T10:46:38;31.60;99.90
19220;DHT22;9744;49.364;7.484;2022-08-19T10:49:08;31.80;99.90
19220;DHT22;9744;49.364;7.484;2022-08-19T10:51:37;31.80;99.90
19220;DHT22;9744;49.364;7.484;2022-08-19T10:54:22;31.80;99.90
19220;DHT22;9744;49.364;7.484;2022-08-19T10:57:10;31.90;99.90
19220;DHT22;9744;49.364;7.484;2022-08-19T10:59:37;32.10;99.90
19220;DHT22;9744;49.364;7.484;2022-08-19T11:02:08;32.00;99.90
19220;DHT22;9744;49.364;7.484;2022-08-19T11:04:36;31.80;99.90
19220;DHT22;9744;49.364;7.484;2022-08-19T11:07:04;31.70;99.90
19220;DHT22;9744;49.364;7.484;2022-08-19T11:09:37;31.60;99.20
19220;DHT22;9744;49.364;7.484;2022-08-19T11:12:05;31.30;99.50
19220;DHT22;9744;49.364;7.484;2022-08-19T11:14:33;31.10;99.90
19220;DHT22;9744;49.364;7.484;2022-08-19T11:17:01;31.00;99.90
19220;DHT22;9744;49.364;7.484;2022-08-19T11:19:31;31.00;99.90
19220;DHT22;9744;49.364;7.484;2022-08-19T11:21:59;30.90;99.30
19220;DHT22;9744;49.364;7.484;2022-08-19T11:24:29;31.00;98.50
19220;DHT22;9744;49.364;7.484;2022-08-19T11:27:02;31.30;99.20
19220;DHT22;9744;49.364;7.484;2022-08-19T11:29:32;31.40;97.80
19220;DHT22;9744;49.364;7.484;2022-08-19T11:32:03;31.70;97.90
19220;DHT22;9744;49.364;7.484;2022-08-19T11:34:32;32.00;98.90
19220;DHT22;9744;49.364;7.484;2022-08-19T11:37:02;32.20;99.00
19220;DHT22;9744;49.364;7.484;2022-08-19T11:39:30;32.20;97.50
19220;DHT22;9744;49.364;7.484;2022-08-19T11:41:59;32.10;96.70
19220;DHT22;9744;49.364;7.484;2022-08-19T11:44:27;31.90;96.50
19220;DHT22;9744;49.364;7.484;2022-08-19T11:46:56;31.80;96.70
19220;DHT22;9744;49.364;7.484;2022-08-19T11:49:23;31.70;97.10
19220;DHT22;9744;49.364;7.484;2022-08-19T11:51:52;31.60;96.70
19220;DHT22;9744;49.364;7.484;2022-08-19T11:54:20;31.50;97.00
19220;DHT22;9744;49.364;7.484;2022-08-19T11:56:47;31.60;96.50
19220;DHT22;9744;49.364;7.484;2022-08-19T11:59:15;31.80;97.70
19220;DHT22;9744;49.364;7.484;2022-08-19T12:01:42;31.80;97.50
19220;DHT22;9744;49.364;7.484;2022-08-19T12:04:10;31.80;97.20
19220;DHT22;9744;49.364;7.484;2022-08-19T12:06:39;31.80;96.80
19220;DHT22;9744;49.364;7.484;2022-08-19T12:09:09;31.80;95.90
19220;DHT22;9744;49.364;7.484;2022-08-19T12:11:37;31.80;96.20
19220;DHT22;9744;49.364;7.484;2022-08-19T12:14:04;31.80;96.20
19220;DHT22;9744;49.364;7.484;2022-08-19T12:16:32;31.70;96.30
19220;DHT22;9744;49.364;7.484;2022-08-19T12:19:00;31.70;95.70
19220;DHT22;9744;49.364;7.484;2022-08-19T12:21:31;31.60;94.40
19220;DHT22;9744;49.364;7.484;2022-08-19T12:24:01;31.40;94.20
19220;DHT22;9744;49.364;7.484;2022-08-19T12:26:30;31.20;93.70
19220;DHT22;9744;49.364;7.484;2022-08-19T12:28:58;31.00;93.50
19220;DHT22;9744;49.364;7.484;2022-08-19T12:31:26;30.80;93.40
19220;DHT22;9744;49.364;7.484;2022-08-19T12:33:54;30.70;93.50
19220;DHT22;9744;49.364;7.484;2022-08-19T12:36:22;30.70;93.50
19220;DHT22;9744;49.364;7.484;2022-08-19T12:38:51;30.90;94.20
19220;DHT22;9744;49.364;7.484;2022-08-19T12:41:20;31.00;93.60
19220;DHT22;9744;49.364;7.484;2022-08-19T12:43:49;31.00;93.60
19220;DHT22;9744;49.364;7.484;2022-08-19T12:46:18;31.10;93.40
19220;DHT22;9744;49.364;7.484;2022-08-19T12:48:47;31.10;93.10
19220;DHT22;9744;49.364;7.484;2022-08-19T12:51:16;31.00;93.40
19220;DHT22;9744;49.364;7.484;2022-08-19T12:53:45;30.90;92.80
19220;DHT22;9744;49.364;7.484;2022-08-19T12:56:13;30.90;93.00
19220;DHT22;9744;49.364;7.484;2022-08-19T12:58:42;30.90;93.00
19220;DHT22;9744;49.364;7.484;2022-08-19T13:01:13;31.20;93.20
19220;DHT22;9744;49.364;7.484;2022-08-19T13:03:44;31.50;93.00
19220;DHT22;9744;49.364;7.484;2022-08-19T13:06:12;31.70;92.30
19220;DHT22;9744;49.364;7.484;2022-08-19T13:08:39;32.00;91.80
19220;DHT22;9744;49.364;7.484;2022-08-19T13:11:09;32.10;91.50
19220;DHT22;9744;49.364;7.484;2022-08-19T13:13:38;32.30;90.80
19220;DHT22;9744;49.364;7.484;2022-08-19T13:16:07;32.50;91.30
19220;DHT22;9744;49.364;7.484;2022-08-19T13:18:37;32.60;90.70
19220;DHT22;9744;49.364;7.484;2022-08-19T13:21:07;32.70;90.40
19220;DHT22;9744;49.364;7.484;2022-08-19T13:23:38;32.80;90.30
19220;DHT22;9744;49.364;7.484;2022-08-19T13:26:07;33.00;90.30
19220;DHT22;9744;49.364;7.484;2022-08-19T13:28:35;33.20;88.90
19220;DHT22;9744;49.364;7.484;2022-08-19T13:31:22;33.30;88.50
19220;DHT22;9744;49.364;7.484;2022-08-19T13:34:09;33.50;89.20
19220;DHT22;9744;49.364;7.484;2022-08-19T13:36:37;33.60;88.20
19220;DHT22;9744;49.364;7.484;2022-08-19T13:39:06;33.70;88.70
19220;DHT22;9744;49.364;7.484;2022-08-19T13:41:35;34.00;86.80
19220;DHT22;9744;49.364;7.484;2022-08-19T13:44:02;33.90;86.90
19220;DHT22;9744;49.364;7.484;2022-08-19T13:46:30;34.10;85.90
19220;DHT22;9744;49.364;7.484;2022-08-19T13:48:58;33.80;83.90
19220;DHT22;9744;49.364;7.484;2022-08-19T13:51:26;33.70;87.80
19220;DHT22;9744;49.364;7.484;2022-08-19T13:53:54;34.00;86.10
19220;DHT22;9744;49.364;7.484;2022-08-19T13:56:21;33.70;86.50
19220;DHT22;9744;49.364;7.484;2022-08-19T13:58:48;33.60;87.40
19220;DHT22;9744;49.364;7.484;2022-08-19T14:01:19;33.60;86.70
19220;DHT22;9744;49.364;7.484;2022-08-19T14:03:47;33.30;87.00
19220;DHT22;9744;49.364;7.484;2022-08-19T14:06:14;32.30;87.20
19220;DHT22;9744;49.364;7.484;2022-08-19T14:08:44;32.00;88.20
19220;DHT22;9744;49.364;7.484;2022-08-19T14:11:11;32.60;90.30
19220;DHT22;9744;49.364;7.484;2022-08-19T14:13:38;33.20;89.80
19220;DHT22;9744;49.364;7.484;2022-08-19T14:16:07;32.60;87.20
19220;DHT22;9744;49.364;7.484;2022-08-19T14:18:35;32.20;88.60
19220;DHT22;9744;49.364;7.484;2022-08-19T14:21:03;32.00;90.10
19220;DHT22;9744;49.364;7.484;2022-08-19T14:23:31;32.20;90.10
19220;DHT22;9744;49.364;7.484;2022-08-19T14:26:08;32.10;91.00
19220;DHT22;9744;49.364;7.484;2022-08-19T14:28:36;32.50;89.90
19220;DHT22;9744;49.364;7.484;2022-08-19T14:31:03;32.40;90.30
19220;DHT22;9744;49.364;7.484;2022-08-19T14:33:30;32.00;90.40
19220;DHT22;9744;49.364;7.484;2022-08-19T14:35:58;31.80;91.00
19220;DHT22;9744;49.364;7.484;2022-08-19T14:38:26;31.30;91.50
19220;DHT22;9744;49.364;7.484;2022-08-19T14:41:11;30.80;91.50
19220;DHT22;9744;49.364;7.484;2022-08-19T14:43:39;30.70;91.70
19220;DHT22;9744;49.364;7.484;2022-08-19T14:46:08;30.40;92.10
19220;DHT22;9744;49.364;7.484;2022-08-19T14:48:36;30.20;92.20
19220;DHT22;9744;49.364;7.484;2022-08-19T14:51:06;30.50;91.90
19220;DHT22;9744;49.364;7.484;2022-08-19T14:53:34;31.40;92.10
19220;DHT22;9744;49.364;7.484;2022-08-19T14:56:01;32.00;91.50
19220;DHT22;9744;49.364;7.484;2022-08-19T14:58:34;32.10;91.10
19220;DHT22;9744;49.364;7.484;2022-08-19T15:01:02;32.70;89.90
19220;DHT22;9744;49.364;7.484;2022-08-19T15:03:31;33.00;89.60
19220;DHT22;9744;49.364;7.484;2022-08-19T15:05:59;33.10;88.10
19220;DHT22;9744;49.364;7.484;2022-08-19T15:08:28;33.10;88.00
19220;DHT22;9744;49.364;7.484;2022-08-19T15:10:57;33.20;88.10
19220;DHT22;9744;49.364;7.484;2022-08-19T15:13:26;33.10;87.80
19220;DHT22;9744;49.364;7.484;2022-08-19T15:15:55;33.00;87.90
19220;DHT22;9744;49.364;7.484;2022-08-19T15:18:23;33.10;87.60
19220;DHT22;9744;49.364;7.484;2022-08-19T15:20:51;33.10;85.60
19220;DHT22;9744;49.364;7.484;2022-08-19T15:23:19;32.90;86.10
19220;DHT22;9744;49.364;7.484;2022-08-19T15:25:46;32.70;87.70
19220;DHT22;9744;49.364;7.484;2022-08-19T15:28:14;32.50;86.50
19220;DHT22;9744;49.364;7.484;2022-08-19T15:30:42;32.40;85.80
19220;DHT22;9744;49.364;7.484;2022-08-19T15:33:11;32.60;89.00
19220;DHT22;9744;49.364;7.484;2022-08-19T15:35:40;32.90;85.60
19220;DHT22;9744;49.364;7.484;2022-08-19T15:38:08;32.40;84.70
19220;DHT22;9744;49.364;7.484;2022-08-19T15:40:36;32.00;87.60
19220;DHT22;9744;49.364;7.484;2022-08-19T15:43:04;32.40;86.70
19220;DHT22;9744;49.364;7.484;2022-08-19T15:45:32;33.10;85.40
19220;DHT22;9744;49.364;7.484;2022-08-19T15:48:00;33.40;84.30
19220;DHT22;9744;49.364;7.484;2022-08-19T15:50:30;33.00;82.20
19220;DHT22;9744;49.364;7.484;2022-08-19T15:52:59;31.80;83.60
19220;DHT22;9744;49.364;7.484;2022-08-19T15:55:28;31.50;86.70
19220;DHT22;9744;49.364;7.484;2022-08-19T15:57:57;32.30;85.60
19220;DHT22;9744;49.364;7.484;2022-08-19T16:00:42;32.70;82.90
19220;DHT22;9744;49.364;7.484;2022-08-19T16:03:26;32.90;83.50
19220;DHT22;9744;49.364;7.484;2022-08-19T16:06:12;32.90;81.40